sensor_id;sensor_type;location;lat;lon;timestamp;P1;durP1;ratioP1;P2;durP2;ratioP2
1054;SDS011;516;51.482;7.120;2024-03-08T00:01:35;0.50;;;0.30;;
1054;SDS011;516;51.482;7.120;2024-03-08T00:04:01;0.50;;;0.30;;
1054;SDS011;516;51.482;7.120;2024-03-08T00:06:26;0.50;;;0.30;;
1054;SDS011;516;51.482;7.120;2024-03-08T00:08:52;0.50;;;0.30;;
1054;SDS011;516;51.482;7.120;2024-03-08T00:11:18;0.50;;;0.30;;
1054;SDS011;516;51.482;7.120;2024-03-08T00:13:43;3.37;;;3.07;;
1054;SDS011;516;51.482;7.120;2024-03-08T00:16:10;0.50;;;0.20;;
1054;SDS011;516;51.482;7.120;2024-03-08T00:18:35;0.57;;;0.30;;
1054;SDS011;516;51.482;7.120;2024-03-08T00:21:01;0.50;;;0.20;;
1054;SDS011;516;51.482;7.120;2024-03-08T00:23:27;0.50;;;0.30;;
1054;SDS011;516;51.482;7.120;2024-03-08T00:25:53;0.50;;;0.30;;
1054;SDS011;516;51.482;7.120;2024-03-08T00:28:20;0.50;;;0.27;;
1054;SDS011;516;51.482;7.120;2024-03-08T00:30:46;0.50;;;0.30;;
1054;SDS011;516;51.482;7.120;2024-03-08T00:33:12;0.50;;;0.30;;
1054;SDS011;516;51.482;7.120;2024-03-08T00:35:37;0.50;;;0.30;;
1054;SDS011;516;51.482;7.120;2024-03-08T00:38:03;0.60;;;0.30;;
1054;SDS011;516;51.482;7.120;2024-03-08T00:40:29;0.53;;;0.30;;
1054;SDS011;516;51.482;7.120;2024-03-08T00:42:54;0.60;;;0.40;;
1054;SDS011;516;51.482;7.120;2024-03-08T00:45:20;0.53;;;0.20;;
1054;SDS011;516;51.482;7.120;2024-03-08T00:47:47;0.50;;;0.30;;
1054;SDS011;516;51.482;7.120;2024-03-08T00:50:12;0.50;;;0.30;;
1054;SDS011;516;51.482;7.120;2024-03-08T00:52:38;0.63;;;0.50;;
1054;SDS011;516;51.482;7.120;2024-03-08T00:55:04;0.60;;;0.30;;
1054;SDS011;516;51.482;7.120;2024-03-08T00:57:29;0.60;;;0.30;;
1054;SDS011;516;51.482;7.120;2024-03-08T00:59:55;0.60;;;0.30;;
1054;SDS011;516;51.482;7.120;2024-03-08T01:02:21;0.50;;;0.30;;
1054;SDS011;516;51.482;7.120;2024-03-08T01:04:48;0.50;;;0.30;;
1054;SDS011;516;51.482;7.120;2024-03-08T01:07:14;0.60;;;0.30;;
1054;SDS011;516;51.482;7.120;2024-03-08T01:09:40;0.50;;;0.30;;
1054;SDS011;516;51.482;7.120;2024-03-08T01:12:06;0.57;;;0.27;;
1054;SDS011;516;51.482;7.120;2024-03-08T01:14:32;0.60;;;0.30;;
1054;SDS011;516;51.482;7.120;2024-03-08T01:16:58;1.73;;;1.63;;
1054;SDS011;516;51.482;7.120;2024-03-08T01:19:24;0.60;;;0.30;;
1054;SDS011;516;51.482;7.120;2024-03-08T01:21:49;0.60;;;0.30;;
1054;SDS011;516;51.482;7.120;2024-03-08T01:24:16;0.60;;;0.33;;
1054;SDS011;516;51.482;7.120;2024-03-08T01:26:41;0.60;;;0.30;;
1054;SDS011;516;51.482;7.120;2024-03-08T01:29:07;0.57;;;0.30;;
1054;SDS011;516;51.482;7.120;2024-03-08T01:31:33;0.50;;;0.30;;
1054;SDS011;516;51.482;7.120;2024-03-08T01:33:59;10.13;;;4.90;;
1054;SDS011;516;51.482;7.120;2024-03-08T01:36:24;0.60;;;0.30;;
1054;SDS011;516;51.482;7.120;2024-03-08T01:38:51;0.50;;;0.30;;
1054;SDS011;516;51.482;7.120;2024-03-08T01:41:17;0.53;;;0.30;;
1054;SDS011;516;51.482;7.120;2024-03-08T01:43:43;3.03;;;2.53;;
1054;SDS011;516;51.482;7.120;2024-03-08T01:46:09;0.50;;;0.23;;
1054;SDS011;516;51.482;7.120;2024-03-08T01:48:37;0.50;;;0.20;;
1054;SDS011;516;51.482;7.120;2024-03-08T01:51:04;0.60;;;0.30;;
1054;SDS011;516;51.482;7.120;2024-03-08T01:53:30;0.50;;;0.30;;
1054;SDS011;516;51.482;7.120;2024-03-08T01:55:57;0.50;;;0.20;;
1054;SDS011;516;51.482;7.120;2024-03-08T01:58:24;3.53;;;3.33;;
1054;SDS011;516;51.482;7.120;2024-03-08T02:00:53;0.50;;;0.20;;
1054;SDS011;516;51.482;7.120;2024-03-08T02:03:21;0.60;;;0.30;;
1054;SDS011;516;51.482;7.120;2024-03-08T02:05:47;0.60;;;0.30;;
1054;SDS011;516;51.482;7.120;2024-03-08T02:08:13;0.60;;;0.40;;
1054;SDS011;516;51.482;7.120;2024-03-08T02:10:46;0.60;;;0.30;;
1054;SDS011;516;51.482;7.120;2024-03-08T02:13:12;2.70;;;2.50;;
1054;SDS011;516;51.482;7.120;2024-03-08T02:18:19;0.60;;;0.30;;
1054;SDS011;516;51.482;7.120;2024-03-08T02:20:46;0.50;;;0.30;;
1054;SDS011;516;51.482;7.120;2024-03-08T02:23:14;0.60;;;0.30;;
1054;SDS011;516;51.482;7.120;2024-03-08T02:25:40;0.50;;;0.30;;
1054;SDS011;516;51.482;7.120;2024-03-08T02:28:08;0.50;;;0.20;;
1054;SDS011;516;51.482;7.120;2024-03-08T02:30:36;0.60;;;0.30;;
1054;SDS011;516;51.482;7.120;2024-03-08T02:33:01;0.60;;;0.30;;
1054;SDS011;516;51.482;7.120;2024-03-08T02:35:27;0.60;;;0.30;;
1054;SDS011;516;51.482;7.120;2024-03-08T02:37:53;0.60;;;0.30;;
1054;SDS011;516;51.482;7.120;2024-03-08T02:40:18;0.50;;;0.30;;
1054;SDS011;516;51.482;7.120;2024-03-08T02:42:44;0.60;;;0.50;;
1054;SDS011;516;51.482;7.120;2024-03-08T02:45:09;0.60;;;0.30;;
1054;SDS011;516;51.482;7.120;2024-03-08T02:47:36;0.60;;;0.30;;
1054;SDS011;516;51.482;7.120;2024-03-08T02:50:02;0.60;;;0.30;;
1054;SDS011;516;51.482;7.120;2024-03-08T02:52:28;0.50;;;0.20;;
1054;SDS011;516;51.482;7.120;2024-03-08T02:54:54;0.57;;;0.30;;
1054;SDS011;516;51.482;7.120;2024-03-08T02:57:19;0.53;;;0.30;;
1054;SDS011;516;51.482;7.120;2024-03-08T02:59:45;0.50;;;0.20;;
1054;SDS011;516;51.482;7.120;2024-03-08T03:02:11;0.60;;;0.30;;
1054;SDS011;516;51.482;7.120;2024-03-08T03:04:39;0.60;;;0.30;;
1054;SDS011;516;51.482;7.120;2024-03-08T03:07:05;0.57;;;0.30;;
1054;SDS011;516;51.482;7.120;2024-03-08T03:09:31;0.50;;;0.30;;
1054;SDS011;516;51.482;7.120;2024-03-08T03:11:58;0.60;;;0.40;;
1054;SDS011;516;51.482;7.120;2024-03-08T03:14:24;0.60;;;0.50;;
1054;SDS011;516;51.482;7.120;2024-03-08T03:16:51;1.53;;;1.43;;
1054;SDS011;516;51.482;7.120;2024-03-08T03:19:17;0.57;;;0.30;;
1054;SDS011;516;51.482;7.120;2024-03-08T03:21:43;0.60;;;0.30;;
1054;SDS011;516;51.482;7.120;2024-03-08T03:24:08;0.70;;;0.70;;
1054;SDS011;516;51.482;7.120;2024-03-08T03:26:35;0.50;;;0.30;;
1054;SDS011;516;51.482;7.120;2024-03-08T03:29:04;0.60;;;0.30;;
1054;SDS011;516;51.482;7.120;2024-03-08T03:31:31;0.60;;;0.30;;
1054;SDS011;516;51.482;7.120;2024-03-08T03:33:57;0.60;;;0.30;;
1054;SDS011;516;51.482;7.120;2024-03-08T03:36:32;0.50;;;0.30;;
1054;SDS011;516;51.482;7.120;2024-03-08T03:38:58;0.60;;;0.30;;
1054;SDS011;516;51.482;7.120;2024-03-08T03:41:38;0.57;;;0.30;;
1054;SDS011;516;51.482;7.120;2024-03-08T03:44:04;0.60;;;0.30;;
1054;SDS011;516;51.482;7.120;2024-03-08T03:46:31;0.50;;;0.30;;
1054;SDS011;516;51.482;7.120;2024-03-08T03:48:57;0.60;;;0.30;;
1054;SDS011;516;51.482;7.120;2024-03-08T03:51:23;0.60;;;0.30;;
1054;SDS011;516;51.482;7.120;2024-03-08T03:53:49;0.50;;;0.30;;
1054;SDS011;516;51.482;7.120;2024-03-08T03:56:15;0.60;;;0.30;;
1054;SDS011;516;51.482;7.120;2024-03-08T03:58:40;0.60;;;0.30;;
1054;SDS011;516;51.482;7.120;2024-03-08T04:01:07;0.87;;;0.87;;
1054;SDS011;516;51.482;7.120;2024-03-08T04:03:34;0.60;;;0.30;;
1054;SDS011;516;51.482;7.120;2024-03-08T04:06:00;0.50;;;0.30;;
1054;SDS011;516;51.482;7.120;2024-03-08T04:08:27;0.50;;;0.30;;
1054;SDS011;516;51.482;7.120;2024-03-08T04:10:52;0.57;;;0.30;;
1054;SDS011;516;51.482;7.120;2024-03-08T04:13:18;0.50;;;0.30;;
1054;SDS011;516;51.482;7.120;2024-03-08T04:15:45;0.50;;;0.30;;
1054;SDS011;516;51.482;7.120;2024-03-08T04:18:13;1.10;;;1.00;;
1054;SDS011;516;51.482;7.120;2024-03-08T04:20:39;0.60;;;0.40;;
1054;SDS011;516;51.482;7.120;2024-03-08T04:23:05;0.50;;;0.30;;
1054;SDS011;516;51.482;7.120;2024-03-08T04:25:31;5.60;;;4.20;;
1054;SDS011;516;51.482;7.120;2024-03-08T04:27:57;0.50;;;0.30;;
1054;SDS011;516;51.482;7.120;2024-03-08T04:30:22;0.53;;;0.30;;
1054;SDS011;516;51.482;7.120;2024-03-08T04:32:49;0.60;;;0.30;;
1054;SDS011;516;51.482;7.120;2024-03-08T04:35:14;0.60;;;0.30;;
1054;SDS011;516;51.482;7.120;2024-03-08T04:37:40;0.60;;;0.30;;
1054;SDS011;516;51.482;7.120;2024-03-08T04:40:06;0.60;;;0.40;;
1054;SDS011;516;51.482;7.120;2024-03-08T04:42:32;0.60;;;0.30;;
1054;SDS011;516;51.482;7.120;2024-03-08T04:44:59;0.60;;;0.30;;
1054;SDS011;516;51.482;7.120;2024-03-08T04:47:25;1.03;;;0.93;;
1054;SDS011;516;51.482;7.120;2024-03-08T04:49:51;0.60;;;0.30;;
1054;SDS011;516;51.482;7.120;2024-03-08T04:52:16;0.60;;;0.40;;
1054;SDS011;516;51.482;7.120;2024-03-08T04:54:42;0.50;;;0.20;;
1054;SDS011;516;51.482;7.120;2024-03-08T04:57:09;0.60;;;0.30;;
1054;SDS011;516;51.482;7.120;2024-03-08T04:59:36;0.60;;;0.30;;
1054;SDS011;516;51.482;7.120;2024-03-08T05:02:02;0.60;;;0.40;;
1054;SDS011;516;51.482;7.120;2024-03-08T05:04:28;0.60;;;0.30;;
1054;SDS011;516;51.482;7.120;2024-03-08T05:06:54;0.60;;;0.30;;
1054;SDS011;516;51.482;7.120;2024-03-08T05:09:20;0.60;;;0.30;;
1054;SDS011;516;51.482;7.120;2024-03-08T05:11:46;0.60;;;0.30;;
1054;SDS011;516;51.482;7.120;2024-03-08T05:14:12;0.60;;;0.30;;
1054;SDS011;516;51.482;7.120;2024-03-08T05:16:42;0.60;;;0.30;;
1054;SDS011;516;51.482;7.120;2024-03-08T05:19:08;0.60;;;0.30;;
1054;SDS011;516;51.482;7.120;2024-03-08T05:21:34;0.60;;;0.30;;
1054;SDS011;516;51.482;7.120;2024-03-08T05:23:59;0.60;;;0.30;;
1054;SDS011;516;51.482;7.120;2024-03-08T05:26:25;0.60;;;0.30;;
1054;SDS011;516;51.482;7.120;2024-03-08T05:28:50;0.70;;;0.50;;
1054;SDS011;516;51.482;7.120;2024-03-08T05:31:19;0.60;;;0.30;;
1054;SDS011;516;51.482;7.120;2024-03-08T05:33:47;0.60;;;0.33;;
1054;SDS011;516;51.482;7.120;2024-03-08T05:36:14;0.60;;;0.30;;
1054;SDS011;516;51.482;7.120;2024-03-08T05:38:41;1.60;;;1.50;;
1054;SDS011;516;51.482;7.120;2024-03-08T05:41:08;0.60;;;0.30;;
1054;SDS011;516;51.482;7.120;2024-03-08T05:43:37;0.60;;;0.30;;
1054;SDS011;516;51.482;7.120;2024-03-08T05:46:03;0.60;;;0.30;;
1054;SDS011;516;51.482;7.120;2024-03-08T05:48:32;4.10;;;3.07;;
1054;SDS011;516;51.482;7.120;2024-03-08T05:50:59;0.60;;;0.30;;
1054;SDS011;516;51.482;7.120;2024-03-08T05:53:26;0.60;;;0.30;;
1054;SDS011;516;51.482;7.120;2024-03-08T05:55:52;0.80;;;0.60;;
1054;SDS011;516;51.482;7.120;2024-03-08T05:58:19;0.60;;;0.30;;
1054;SDS011;516;51.482;7.120;2024-03-08T06:00:44;0.70;;;0.60;;
1054;SDS011;516;51.482;7.120;2024-03-08T06:03:11;0.60;;;0.40;;
1054;SDS011;516;51.482;7.120;2024-03-08T06:05:37;0.60;;;0.30;;
1054;SDS011;516;51.482;7.120;2024-03-08T06:08:05;0.60;;;0.30;;
1054;SDS011;516;51.482;7.120;2024-03-08T06:10:32;1.47;;;1.37;;
1054;SDS011;516;51.482;7.120;2024-03-08T06:12:58;0.70;;;0.67;;
1054;SDS011;516;51.482;7.120;2024-03-08T06:15:24;0.60;;;0.30;;
1054;SDS011;516;51.482;7.120;2024-03-08T06:17:50;0.60;;;0.30;;
1054;SDS011;516;51.482;7.120;2024-03-08T06:20:17;0.60;;;0.30;;
1054;SDS011;516;51.482;7.120;2024-03-08T06:22:43;0.60;;;0.30;;
1054;SDS011;516;51.482;7.120;2024-03-08T06:25:10;0.60;;;0.30;;
1054;SDS011;516;51.482;7.120;2024-03-08T06:27:40;0.60;;;0.30;;
1054;SDS011;516;51.482;7.120;2024-03-08T06:30:07;0.60;;;0.30;;
1054;SDS011;516;51.482;7.120;2024-03-08T06:32:34;0.53;;;0.30;;
1054;SDS011;516;51.482;7.120;2024-03-08T06:35:01;0.60;;;0.30;;
1054;SDS011;516;51.482;7.120;2024-03-08T06:37:31;0.60;;;0.30;;
1054;SDS011;516;51.482;7.120;2024-03-08T06:40:00;0.60;;;0.30;;
1054;SDS011;516;51.482;7.120;2024-03-08T06:42:26;0.60;;;0.30;;
1054;SDS011;516;51.482;7.120;2024-03-08T06:44:53;0.60;;;0.30;;
1054;SDS011;516;51.482;7.120;2024-03-08T06:47:21;0.60;;;0.30;;
1054;SDS011;516;51.482;7.120;2024-03-08T06:49:47;1.00;;;0.93;;
1054;SDS011;516;51.482;7.120;2024-03-08T06:52:14;0.60;;;0.30;;
1054;SDS011;516;51.482;7.120;2024-03-08T06:54:40;0.60;;;0.30;;
1054;SDS011;516;51.482;7.120;2024-03-08T06:57:05;0.60;;;0.30;;
1054;SDS011;516;51.482;7.120;2024-03-08T06:59:31;0.60;;;0.30;;
1054;SDS011;516;51.482;7.120;2024-03-08T07:01:57;0.60;;;0.30;;
1054;SDS011;516;51.482;7.120;2024-03-08T07:04:24;0.60;;;0.20;;
1054;SDS011;516;51.482;7.120;2024-03-08T07:06:54;0.60;;;0.30;;
1054;SDS011;516;51.482;7.120;2024-03-08T07:09:19;0.60;;;0.30;;
1054;SDS011;516;51.482;7.120;2024-03-08T07:11:45;0.60;;;0.30;;
1054;SDS011;516;51.482;7.120;2024-03-08T07:14:11;0.60;;;0.30;;
1054;SDS011;516;51.482;7.120;2024-03-08T07:16:37;1.63;;;1.47;;
1054;SDS011;516;51.482;7.120;2024-03-08T07:19:04;0.60;;;0.40;;
1054;SDS011;516;51.482;7.120;2024-03-08T07:21:30;0.60;;;0.30;;
1054;SDS011;516;51.482;7.120;2024-03-08T07:23:56;0.50;;;0.30;;
1054;SDS011;516;51.482;7.120;2024-03-08T07:26:25;0.60;;;0.30;;
1054;SDS011;516;51.482;7.120;2024-03-08T07:28:50;0.60;;;0.30;;
1054;SDS011;516;51.482;7.120;2024-03-08T07:31:16;0.60;;;0.30;;
1054;SDS011;516;51.482;7.120;2024-03-08T07:33:52;0.60;;;0.30;;
1054;SDS011;516;51.482;7.120;2024-03-08T07:36:18;0.60;;;0.30;;
1054;SDS011;516;51.482;7.120;2024-03-08T07:38:44;0.60;;;0.30;;
1054;SDS011;516;51.482;7.120;2024-03-08T07:41:12;0.70;;;0.67;;
1054;SDS011;516;51.482;7.120;2024-03-08T07:43:38;2.53;;;1.53;;
1054;SDS011;516;51.482;7.120;2024-03-08T07:46:03;0.60;;;0.30;;
1054;SDS011;516;51.482;7.120;2024-03-08T07:48:29;0.60;;;0.30;;
1054;SDS011;516;51.482;7.120;2024-03-08T07:50:55;0.60;;;0.30;;
1054;SDS011;516;51.482;7.120;2024-03-08T07:53:21;0.60;;;0.40;;
1054;SDS011;516;51.482;7.120;2024-03-08T07:55:49;0.60;;;0.30;;
1054;SDS011;516;51.482;7.120;2024-03-08T07:58:15;0.60;;;0.30;;
1054;SDS011;516;51.482;7.120;2024-03-08T08:00:42;1.10;;;1.00;;
1054;SDS011;516;51.482;7.120;2024-03-08T08:03:08;0.60;;;0.40;;
1054;SDS011;516;51.482;7.120;2024-03-08T08:05:33;0.60;;;0.30;;
1054;SDS011;516;51.482;7.120;2024-03-08T08:08:04;0.60;;;0.30;;
1054;SDS011;516;51.482;7.120;2024-03-08T08:10:34;0.60;;;0.30;;
1054;SDS011;516;51.482;7.120;2024-03-08T08:13:00;0.60;;;0.30;;
1054;SDS011;516;51.482;7.120;2024-03-08T08:15:28;0.60;;;0.30;;
1054;SDS011;516;51.482;7.120;2024-03-08T08:17:54;0.60;;;0.30;;
1054;SDS011;516;51.482;7.120;2024-03-08T08:20:20;0.60;;;0.30;;
1054;SDS011;516;51.482;7.120;2024-03-08T08:22:46;0.60;;;0.30;;
1054;SDS011;516;51.482;7.120;2024-03-08T08:25:13;0.60;;;0.30;;
1054;SDS011;516;51.482;7.120;2024-03-08T08:27:45;0.60;;;0.30;;
1054;SDS011;516;51.482;7.120;2024-03-08T08:30:11;0.60;;;0.30;;
1054;SDS011;516;51.482;7.120;2024-03-08T08:32:37;0.60;;;0.30;;
1054;SDS011;516;51.482;7.120;2024-03-08T08:35:07;0.60;;;0.30;;
1054;SDS011;516;51.482;7.120;2024-03-08T08:37:38;0.60;;;0.30;;
1054;SDS011;516;51.482;7.120;2024-03-08T08:40:04;0.60;;;0.30;;
1054;SDS011;516;51.482;7.120;2024-03-08T08:42:34;0.60;;;0.30;;
1054;SDS011;516;51.482;7.120;2024-03-08T08:45:01;3.77;;;2.33;;
1054;SDS011;516;51.482;7.120;2024-03-08T08:47:27;1.00;;;0.93;;
1054;SDS011;516;51.482;7.120;2024-03-08T08:49:53;0.60;;;0.30;;
1054;SDS011;516;51.482;7.120;2024-03-08T08:52:21;0.60;;;0.40;;
1054;SDS011;516;51.482;7.120;2024-03-08T08:54:46;0.60;;;0.30;;
1054;SDS011;516;51.482;7.120;2024-03-08T08:57:13;0.60;;;0.30;;
1054;SDS011;516;51.482;7.120;2024-03-08T08:59:39;0.60;;;0.30;;
1054;SDS011;516;51.482;7.120;2024-03-08T09:02:05;0.60;;;0.30;;
1054;SDS011;516;51.482;7.120;2024-03-08T09:04:32;0.60;;;0.30;;
1054;SDS011;516;51.482;7.120;2024-03-08T09:06:57;0.60;;;0.30;;
1054;SDS011;516;51.482;7.120;2024-03-08T09:09:23;0.60;;;0.30;;
1054;SDS011;516;51.482;7.120;2024-03-08T09:11:50;0.60;;;0.30;;
1054;SDS011;516;51.482;7.120;2024-03-08T09:14:16;0.60;;;0.30;;
1054;SDS011;516;51.482;7.120;2024-03-08T09:16:42;0.60;;;0.20;;
1054;SDS011;516;51.482;7.120;2024-03-08T09:19:07;0.60;;;0.30;;
1054;SDS011;516;51.482;7.120;2024-03-08T09:21:35;0.60;;;0.20;;
1054;SDS011;516;51.482;7.120;2024-03-08T09:24:01;0.60;;;0.30;;
1054;SDS011;516;51.482;7.120;2024-03-08T09:26:27;0.60;;;0.30;;
1054;SDS011;516;51.482;7.120;2024-03-08T09:28:53;0.60;;;0.40;;
1054;SDS011;516;51.482;7.120;2024-03-08T09:31:20;0.60;;;0.20;;
1054;SDS011;516;51.482;7.120;2024-03-08T09:33:46;0.57;;;0.30;;
1054;SDS011;516;51.482;7.120;2024-03-08T09:36:12;1.30;;;1.20;;
1054;SDS011;516;51.482;7.120;2024-03-08T09:38:39;1.03;;;0.93;;
1054;SDS011;516;51.482;7.120;2024-03-08T09:41:05;0.80;;;0.57;;
1054;SDS011;516;51.482;7.120;2024-03-08T09:43:31;0.60;;;0.30;;
1054;SDS011;516;51.482;7.120;2024-03-08T09:45:57;0.60;;;0.30;;
1054;SDS011;516;51.482;7.120;2024-03-08T09:48:23;0.60;;;0.30;;
1054;SDS011;516;51.482;7.120;2024-03-08T09:50:49;0.60;;;0.30;;
1054;SDS011;516;51.482;7.120;2024-03-08T09:53:15;0.70;;;0.50;;
1054;SDS011;516;51.482;7.120;2024-03-08T09:55:41;0.60;;;0.30;;
1054;SDS011;516;51.482;7.120;2024-03-08T09:58:10;0.63;;;0.30;;
1054;SDS011;516;51.482;7.120;2024-03-08T10:00:43;0.60;;;0.30;;
1054;SDS011;516;51.482;7.120;2024-03-08T10:03:09;0.60;;;0.30;;
1054;SDS011;516;51.482;7.120;2024-03-08T10:05:35;0.60;;;0.30;;
1054;SDS011;516;51.482;7.120;2024-03-08T10:08:01;0.60;;;0.30;;
1054;SDS011;516;51.482;7.120;2024-03-08T10:10:27;0.60;;;0.30;;
1054;SDS011;516;51.482;7.120;2024-03-08T10:12:53;0.60;;;0.30;;
1054;SDS011;516;51.482;7.120;2024-03-08T10:15:20;0.60;;;0.30;;
1054;SDS011;516;51.482;7.120;2024-03-08T10:17:46;0.60;;;0.20;;
1054;SDS011;516;51.482;7.120;2024-03-08T10:20:18;0.60;;;0.30;;
1054;SDS011;516;51.482;7.120;2024-03-08T10:22:44;0.60;;;0.30;;
1054;SDS011;516;51.482;7.120;2024-03-08T10:25:13;0.60;;;0.20;;
1054;SDS011;516;51.482;7.120;2024-03-08T10:27:39;0.60;;;0.30;;
1054;SDS011;516;51.482;7.120;2024-03-08T10:30:06;0.60;;;0.40;;
1054;SDS011;516;51.482;7.120;2024-03-08T10:32:45;1.10;;;0.97;;
1054;SDS011;516;51.482;7.120;2024-03-08T10:35:10;0.60;;;0.20;;
1054;SDS011;516;51.482;7.120;2024-03-08T10:37:44;0.60;;;0.20;;
1054;SDS011;516;51.482;7.120;2024-03-08T10:40:17;0.60;;;0.30;;
1054;SDS011;516;51.482;7.120;2024-03-08T10:42:54;0.60;;;0.30;;
1054;SDS011;516;51.482;7.120;2024-03-08T10:45:39;0.57;;;0.27;;
1054;SDS011;516;51.482;7.120;2024-03-08T10:50:53;0.60;;;0.30;;
1054;SDS011;516;51.482;7.120;2024-03-08T10:53:19;0.60;;;0.30;;
1054;SDS011;516;51.482;7.120;2024-03-08T10:55:47;0.60;;;0.20;;
1054;SDS011;516;51.482;7.120;2024-03-08T10:58:18;0.60;;;0.30;;
1054;SDS011;516;51.482;7.120;2024-03-08T11:00:47;0.60;;;0.30;;
1054;SDS011;516;51.482;7.120;2024-03-08T11:03:48;0.50;;;0.30;;
1054;SDS011;516;51.482;7.120;2024-03-08T11:08:47;0.60;;;0.30;;
1054;SDS011;516;51.482;7.120;2024-03-08T11:11:28;0.60;;;0.30;;
1054;SDS011;516;51.482;7.120;2024-03-08T11:13:59;0.60;;;0.30;;
1054;SDS011;516;51.482;7.120;2024-03-08T11:18:57;0.60;;;0.30;;
1054;SDS011;516;51.482;7.120;2024-03-08T11:21:35;0.60;;;0.30;;
1054;SDS011;516;51.482;7.120;2024-03-08T11:24:09;0.50;;;0.30;;
1054;SDS011;516;51.482;7.120;2024-03-08T11:26:41;0.60;;;0.30;;
1054;SDS011;516;51.482;7.120;2024-03-08T11:34:57;0.50;;;0.20;;
1054;SDS011;516;51.482;7.120;2024-03-08T11:37:24;0.60;;;0.30;;
1054;SDS011;516;51.482;7.120;2024-03-08T11:39:53;0.60;;;0.30;;
1054;SDS011;516;51.482;7.120;2024-03-08T11:42:27;0.60;;;0.30;;
1054;SDS011;516;51.482;7.120;2024-03-08T11:44:52;0.60;;;0.20;;
1054;SDS011;516;51.482;7.120;2024-03-08T11:47:20;4.33;;;4.20;;
1054;SDS011;516;51.482;7.120;2024-03-08T11:49:46;6.50;;;6.30;;
1054;SDS011;516;51.482;7.120;2024-03-08T11:52:15;21.37;;;20.53;;
1054;SDS011;516;51.482;7.120;2024-03-08T11:54:42;17.60;;;17.00;;
1054;SDS011;516;51.482;7.120;2024-03-08T11:57:17;16.73;;;16.13;;
1054;SDS011;516;51.482;7.120;2024-03-08T11:59:53;16.57;;;15.97;;
1054;SDS011;516;51.482;7.120;2024-03-08T12:02:20;3.10;;;3.00;;
1054;SDS011;516;51.482;7.120;2024-03-08T12:04:47;3.17;;;3.07;;
1054;SDS011;516;51.482;7.120;2024-03-08T12:07:20;3.23;;;3.13;;
1054;SDS011;516;51.482;7.120;2024-03-08T12:10:13;2.90;;;2.80;;
1054;SDS011;516;51.482;7.120;2024-03-08T12:12:43;2.60;;;2.50;;
1054;SDS011;516;51.482;7.120;2024-03-08T12:15:14;2.37;;;2.27;;
1054;SDS011;516;51.482;7.120;2024-03-08T12:17:41;2.27;;;2.17;;
1054;SDS011;516;51.482;7.120;2024-03-08T12:20:28;2.53;;;2.43;;
1054;SDS011;516;51.482;7.120;2024-03-08T12:22:57;2.13;;;2.03;;
1054;SDS011;516;51.482;7.120;2024-03-08T12:25:30;2.30;;;2.20;;
1054;SDS011;516;51.482;7.120;2024-03-08T12:27:57;2.13;;;2.03;;
1054;SDS011;516;51.482;7.120;2024-03-08T12:30:32;3.67;;;3.58;;
1054;SDS011;516;51.482;7.120;2024-03-08T12:32:59;12.53;;;12.13;;
1054;SDS011;516;51.482;7.120;2024-03-08T12:35:26;4.47;;;4.37;;
1054;SDS011;516;51.482;7.120;2024-03-08T12:37:53;4.00;;;3.90;;
1054;SDS011;516;51.482;7.120;2024-03-08T12:40:26;4.17;;;4.07;;
1054;SDS011;516;51.482;7.120;2024-03-08T12:43:00;4.23;;;4.13;;
1054;SDS011;516;51.482;7.120;2024-03-08T12:45:26;3.67;;;3.58;;
1054;SDS011;516;51.482;7.120;2024-03-08T12:47:52;3.70;;;3.60;;
1054;SDS011;516;51.482;7.120;2024-03-08T12:50:21;3.10;;;3.00;;
1054;SDS011;516;51.482;7.120;2024-03-08T12:52:48;2.87;;;2.77;;
1054;SDS011;516;51.482;7.120;2024-03-08T12:55:14;2.90;;;2.80;;
1054;SDS011;516;51.482;7.120;2024-03-08T12:57:41;2.83;;;2.73;;
1054;SDS011;516;51.482;7.120;2024-03-08T13:00:07;3.00;;;2.90;;
1054;SDS011;516;51.482;7.120;2024-03-08T13:02:38;2.80;;;2.70;;
1054;SDS011;516;51.482;7.120;2024-03-08T13:05:05;2.93;;;2.83;;
1054;SDS011;516;51.482;7.120;2024-03-08T13:07:31;2.83;;;2.73;;
1054;SDS011;516;51.482;7.120;2024-03-08T13:09:57;2.57;;;2.47;;
1054;SDS011;516;51.482;7.120;2024-03-08T13:12:24;2.67;;;2.57;;
1054;SDS011;516;51.482;7.120;2024-03-08T13:14:50;2.70;;;2.60;;
1054;SDS011;516;51.482;7.120;2024-03-08T13:17:16;2.50;;;2.40;;
1054;SDS011;516;51.482;7.120;2024-03-08T13:19:44;2.60;;;2.50;;
1054;SDS011;516;51.482;7.120;2024-03-08T13:22:10;2.50;;;2.40;;
1054;SDS011;516;51.482;7.120;2024-03-08T13:24:37;3.43;;;3.33;;
1054;SDS011;516;51.482;7.120;2024-03-08T13:27:05;2.30;;;2.20;;
1054;SDS011;516;51.482;7.120;2024-03-08T13:29:49;2.70;;;2.60;;
1054;SDS011;516;51.482;7.120;2024-03-08T13:32:15;2.90;;;2.80;;
1054;SDS011;516;51.482;7.120;2024-03-08T13:34:45;4.67;;;4.53;;
1054;SDS011;516;51.482;7.120;2024-03-08T13:37:12;4.60;;;4.50;;
1054;SDS011;516;51.482;7.120;2024-03-08T13:39:40;5.63;;;5.43;;
1054;SDS011;516;51.482;7.120;2024-03-08T13:42:12;4.50;;;4.40;;
1054;SDS011;516;51.482;7.120;2024-03-08T13:44:47;5.00;;;4.80;;
1054;SDS011;516;51.482;7.120;2024-03-08T13:47:16;4.63;;;4.47;;
1054;SDS011;516;51.482;7.120;2024-03-08T13:49:42;4.37;;;4.27;;
1054;SDS011;516;51.482;7.120;2024-03-08T13:52:09;5.17;;;4.97;;
1054;SDS011;516;51.482;7.120;2024-03-08T13:54:35;4.43;;;4.33;;
1054;SDS011;516;51.482;7.120;2024-03-08T13:57:01;4.37;;;4.27;;
1054;SDS011;516;51.482;7.120;2024-03-08T13:59:31;4.80;;;4.60;;
1054;SDS011;516;51.482;7.120;2024-03-08T14:01:58;5.00;;;4.80;;
1054;SDS011;516;51.482;7.120;2024-03-08T14:04:24;6.00;;;5.80;;
1054;SDS011;516;51.482;7.120;2024-03-08T14:06:51;4.90;;;4.70;;
1054;SDS011;516;51.482;7.120;2024-03-08T14:09:21;4.07;;;3.97;;
1054;SDS011;516;51.482;7.120;2024-03-08T14:11:57;5.63;;;5.43;;
1054;SDS011;516;51.482;7.120;2024-03-08T14:14:23;5.50;;;5.30;;
1054;SDS011;516;51.482;7.120;2024-03-08T14:16:49;5.67;;;5.47;;
1054;SDS011;516;51.482;7.120;2024-03-08T14:19:19;5.93;;;5.73;;
1054;SDS011;516;51.482;7.120;2024-03-08T14:21:45;6.17;;;5.97;;
1054;SDS011;516;51.482;7.120;2024-03-08T14:24:12;6.00;;;5.80;;
1054;SDS011;516;51.482;7.120;2024-03-08T14:26:40;6.40;;;6.20;;
1054;SDS011;516;51.482;7.120;2024-03-08T14:29:07;5.00;;;4.80;;
1054;SDS011;516;51.482;7.120;2024-03-08T14:31:34;6.30;;;6.10;;
1054;SDS011;516;51.482;7.120;2024-03-08T14:34:01;0.60;;;0.37;;
1054;SDS011;516;51.482;7.120;2024-03-08T14:36:28;0.60;;;0.50;;
1054;SDS011;516;51.482;7.120;2024-03-08T14:38:54;0.60;;;0.50;;
1054;SDS011;516;51.482;7.120;2024-03-08T14:41:20;0.60;;;0.40;;
1054;SDS011;516;51.482;7.120;2024-03-08T14:43:47;0.60;;;0.50;;
1054;SDS011;516;51.482;7.120;2024-03-08T14:46:13;2.30;;;2.20;;
1054;SDS011;516;51.482;7.120;2024-03-08T14:48:42;0.60;;;0.40;;
1054;SDS011;516;51.482;7.120;2024-03-08T14:51:09;0.60;;;0.50;;
1054;SDS011;516;51.482;7.120;2024-03-08T14:53:36;0.60;;;0.40;;
1054;SDS011;516;51.482;7.120;2024-03-08T14:56:06;0.60;;;0.40;;
1054;SDS011;516;51.482;7.120;2024-03-08T14:58:34;1.53;;;1.43;;
1054;SDS011;516;51.482;7.120;2024-03-08T15:01:00;0.60;;;0.40;;
1054;SDS011;516;51.482;7.120;2024-03-08T15:03:26;0.60;;;0.40;;
1054;SDS011;516;51.482;7.120;2024-03-08T15:05:53;3.87;;;3.77;;
1054;SDS011;516;51.482;7.120;2024-03-08T15:08:21;7.70;;;7.50;;
1054;SDS011;516;51.482;7.120;2024-03-08T15:10:49;7.77;;;7.57;;
1054;SDS011;516;51.482;7.120;2024-03-08T15:13:23;7.37;;;7.17;;
1054;SDS011;516;51.482;7.120;2024-03-08T15:15:52;7.70;;;7.50;;
1054;SDS011;516;51.482;7.120;2024-03-08T15:18:22;7.63;;;7.43;;
1054;SDS011;516;51.482;7.120;2024-03-08T15:20:56;7.10;;;6.90;;
1054;SDS011;516;51.482;7.120;2024-03-08T15:23:22;7.77;;;7.57;;
1054;SDS011;516;51.482;7.120;2024-03-08T15:25:48;7.77;;;7.57;;
1054;SDS011;516;51.482;7.120;2024-03-08T15:28:16;8.80;;;8.50;;
1054;SDS011;516;51.482;7.120;2024-03-08T15:30:46;9.10;;;8.80;;
1054;SDS011;516;51.482;7.120;2024-03-08T15:33:16;8.70;;;8.40;;
1054;SDS011;516;51.482;7.120;2024-03-08T15:35:49;8.43;;;8.13;;
1054;SDS011;516;51.482;7.120;2024-03-08T15:38:24;7.90;;;7.60;;
1054;SDS011;516;51.482;7.120;2024-03-08T15:40:52;8.20;;;7.90;;
1054;SDS011;516;51.482;7.120;2024-03-08T15:43:19;7.57;;;7.37;;
1054;SDS011;516;51.482;7.120;2024-03-08T15:45:45;8.00;;;7.77;;
1054;SDS011;516;51.482;7.120;2024-03-08T15:48:11;7.10;;;6.90;;